GMT,Max TemperatureF,Mean TemperatureF,Min TemperatureF,Max Dew PointF,MeanDew PointF,Min DewpointF,Max Humidity, Mean Humidity, Min Humidity, Max Sea Level PressureIn, Mean Sea Level PressureIn, Min Sea Level PressureIn, Max VisibilityMiles, Mean VisibilityMiles, Min VisibilityMiles, Max Wind SpeedMPH, Mean Wind SpeedMPH, Max Gust SpeedMPH,PrecipitationIn, CloudCover, Events, WindDirDegrees
2011-10-1,64,60,55,59,57,55,100,97,77,30.21,30.18,30.12,5,3,0,9,3,,0.00,6,Fog-Rain,39
2011-10-2,60,58,55,59,56,54,100,96,88,30.21,30.09,29.98,6,4,1,10,5,,0.00,7,Rain,279
2011-10-3,64,57,50,59,51,43,100,83,67,29.98,29.79,29.62,6,6,5,28,11,44,0.00,4,Rain,241
2011-10-4,55,53,51,50,47,45,94,82,76,29.89,29.83,29.80,6,6,4,23,17,34,0.00,5,Rain,243
2011-10-5,64,56,48,57,53,43,94,85,77,29.77,29.54,29.44,6,6,3,36,19,48,0.00,5,Rain,239
2011-10-6,50,46,41,45,41,37,93,83,71,29.71,29.47,29.36,6,6,3,28,16,40,0.00,3,Rain,249
2011-10-7,57,50,42,45,41,37,93,73,48,30.12,29.98,29.71,6,6,6,13,9,,0.00,3,,260
2011-10-8,57,52,46,57,48,43,100,94,82,30.12,30.03,29.89,6,4,1,12,6,,0.00,7,Rain,275
2011-10-9,60,56,53,57,54,48,100,86,72,29.86,29.77,29.71,6,6,4,21,15,33,0.00,6,Rain,249
2011-10-10,55,52,50,52,49,45,100,88,72,29.80,29.72,29.65,6,6,5,14,9,,0.00,4,Rain,250
2011-10-11,55,50,46,50,45,41,100,81,62,30.04,29.88,29.74,6,6,6,16,9,,0.00,3,Rain,257
2011-10-12,50,48,46,48,46,45,100,91,87,30.27,30.11,30.01,6,6,4,9,5,,0.00,6,Rain,87
2011-10-13,57,52,48,52,50,48,100,92,82,30.36,30.34,30.27,6,5,1,7,3,,0.00,6,Rain,53
2011-10-14,62,55,48,54,52,46,100,84,72,30.36,30.30,30.24,6,6,3,15,5,,0.00,3,,208
2011-10-15,59,57,55,52,49,46,82,77,67,30.24,30.13,30.04,6,6,6,20,11,,0.00,3,Rain,209
2011-10-16,55,50,46,52,46,43,94,81,63,30.06,30.02,29.89,6,6,6,17,11,,0.00,4,Rain,233
2011-10-17,53,46,39,45,42,37,100,86,71,29.89,29.60,29.36,6,6,1,28,15,36,0.00,5,Rain,238
2011-10-18,50,46,41,41,39,37,93,80,66,29.68,29.48,29.39,6,6,6,23,16,33,0.00,3,Rain,247
2011-10-19,48,40,33,36,33,30,93,72,50,30.18,29.98,29.71,6,6,6,13,9,,0.00,3,,265
2011-10-20,51,42,33,46,39,32,93,87,71,30.21,30.15,29.98,6,6,6,20,8,31,0.00,5,Rain,237
2011-10-21,57,54,50,52,50,46,94,85,77,29.98,29.89,29.83,6,6,4,23,16,,0.00,6,Rain,220
2011-10-22,55,52,50,48,45,41,82,73,67,29.86,29.69,29.53,6,6,6,24,15,38,0.00,4,Rain,198
2011-10-23,62,55,48,52,48,41,93,77,48,29.53,29.48,29.42,6,6,6,16,10,,0.00,3,Rain,152
2011-10-24,60,56,53,52,47,43,82,74,55,29.42,29.37,29.36,6,6,6,20,12,30,0.00,4,,98
2011-10-25,59,50,39,54,48,37,94,83,63,29.47,29.36,29.30,6,6,5,17,11,21,0.00,6,Rain,98
2011-10-26,53,48,42,46,43,41,100,83,62,29.56,29.48,29.42,6,6,4,14,4,,0.00,3,Rain,171
2011-10-27,55,48,42,46,44,37,93,82,72,29.83,29.68,29.56,6,6,6,12,7,,0.00,3,Rain,198
2011-10-28,53,47,41,46,42,39,93,79,67,30.09,30.01,29.83,6,6,6,20,11,,0.00,2,,226
2011-10-29,57,54,51,52,48,45,88,80,72,29.98,29.78,29.62,6,6,4,25,14,34,0.00,4,Rain,212
2011-10-30,59,55,51,54,50,46,88,79,72,29.83,29.77,29.68,6,6,6,18,15,,0.00,5,,229
2011-10-31,60,55,50,55,53,48,100,83,68,29.77,29.63,29.53,6,6,3,21,10,23,0.00,5,Rain,208